sensor_id;sensor_type;location;lat;lon;timestamp;P1;durP1;ratioP1;P2;durP2;ratioP2
55134;SDS011;41031;44.750;11.308;2023-03-24T00:00:21;9.00;;;7.67;;
55134;SDS011;41031;44.750;11.308;2023-03-24T00:02:49;9.77;;;7.73;;
55134;SDS011;41031;44.750;11.308;2023-03-24T00:05:18;9.90;;;7.10;;
55134;SDS011;41031;44.750;11.308;2023-03-24T00:07:46;11.70;;;8.30;;
55134;SDS011;41031;44.750;11.308;2023-03-24T00:10:20;10.90;;;8.47;;
55134;SDS011;41031;44.750;11.308;2023-03-24T00:12:48;15.23;;;8.50;;
55134;SDS011;41031;44.750;11.308;2023-03-24T00:15:17;17.30;;;9.57;;
55134;SDS011;41031;44.750;11.308;2023-03-24T00:17:46;13.40;;;9.67;;
55134;SDS011;41031;44.750;11.308;2023-03-24T00:20:16;14.67;;;9.73;;
55134;SDS011;41031;44.750;11.308;2023-03-24T00:22:46;12.83;;;8.70;;
55134;SDS011;41031;44.750;11.308;2023-03-24T00:25:17;12.27;;;9.70;;
55134;SDS011;41031;44.750;11.308;2023-03-24T00:27:49;11.43;;;8.93;;
55134;SDS011;41031;44.750;11.308;2023-03-24T00:30:17;10.63;;;9.40;;
55134;SDS011;41031;44.750;11.308;2023-03-24T00:32:45;16.13;;;10.57;;
55134;SDS011;41031;44.750;11.308;2023-03-24T00:35:13;10.77;;;9.53;;
55134;SDS011;41031;44.750;11.308;2023-03-24T00:37:41;12.37;;;10.53;;
55134;SDS011;41031;44.750;11.308;2023-03-24T00:40:14;14.23;;;9.80;;
55134;SDS011;41031;44.750;11.308;2023-03-24T00:42:43;11.90;;;9.63;;
55134;SDS011;41031;44.750;11.308;2023-03-24T00:45:16;13.50;;;10.57;;
55134;SDS011;41031;44.750;11.308;2023-03-24T00:47:46;15.63;;;10.47;;
55134;SDS011;41031;44.750;11.308;2023-03-24T00:50:17;14.77;;;10.60;;
55134;SDS011;41031;44.750;11.308;2023-03-24T00:52:46;15.27;;;10.83;;
55134;SDS011;41031;44.750;11.308;2023-03-24T00:55:14;15.87;;;10.20;;
55134;SDS011;41031;44.750;11.308;2023-03-24T00:57:43;15.03;;;11.27;;
55134;SDS011;41031;44.750;11.308;2023-03-24T01:00:21;13.03;;;10.50;;
55134;SDS011;41031;44.750;11.308;2023-03-24T01:02:52;15.13;;;11.17;;
55134;SDS011;41031;44.750;11.308;2023-03-24T01:05:21;14.03;;;11.30;;
55134;SDS011;41031;44.750;11.308;2023-03-24T01:07:58;17.17;;;11.23;;
55134;SDS011;41031;44.750;11.308;2023-03-24T01:10:30;16.87;;;11.60;;
55134;SDS011;41031;44.750;11.308;2023-03-24T01:13:00;18.73;;;12.37;;
55134;SDS011;41031;44.750;11.308;2023-03-24T01:15:30;15.57;;;11.83;;
55134;SDS011;41031;44.750;11.308;2023-03-24T01:17:59;19.00;;;12.13;;
55134;SDS011;41031;44.750;11.308;2023-03-24T01:20:30;19.00;;;13.30;;
55134;SDS011;41031;44.750;11.308;2023-03-24T01:23:02;18.23;;;13.23;;
55134;SDS011;41031;44.750;11.308;2023-03-24T01:25:33;16.00;;;12.97;;
55134;SDS011;41031;44.750;11.308;2023-03-24T01:28:03;19.93;;;13.07;;
55134;SDS011;41031;44.750;11.308;2023-03-24T01:30:30;17.73;;;12.47;;
55134;SDS011;41031;44.750;11.308;2023-03-24T01:32:57;15.10;;;12.57;;
55134;SDS011;41031;44.750;11.308;2023-03-24T01:35:25;17.93;;;13.33;;
55134;SDS011;41031;44.750;11.308;2023-03-24T01:37:55;20.47;;;13.37;;
55134;SDS011;41031;44.750;11.308;2023-03-24T01:40:28;19.47;;;12.43;;
55134;SDS011;41031;44.750;11.308;2023-03-24T01:42:57;19.73;;;13.90;;
55134;SDS011;41031;44.750;11.308;2023-03-24T01:48:05;22.23;;;14.60;;
55134;SDS011;41031;44.750;11.308;2023-03-24T01:50:35;19.23;;;14.10;;
55134;SDS011;41031;44.750;11.308;2023-03-24T01:53:04;22.23;;;15.70;;
55134;SDS011;41031;44.750;11.308;2023-03-24T01:55:32;20.20;;;15.07;;
55134;SDS011;41031;44.750;11.308;2023-03-24T01:58:01;19.40;;;16.03;;
55134;SDS011;41031;44.750;11.308;2023-03-24T02:00:42;20.93;;;15.27;;
55134;SDS011;41031;44.750;11.308;2023-03-24T02:03:39;18.93;;;15.17;;
55134;SDS011;41031;44.750;11.308;2023-03-24T02:06:07;23.10;;;16.17;;
55134;SDS011;41031;44.750;11.308;2023-03-24T02:08:46;20.77;;;15.60;;
55134;SDS011;41031;44.750;11.308;2023-03-24T02:11:18;19.03;;;14.87;;
55134;SDS011;41031;44.750;11.308;2023-03-24T02:13:51;19.93;;;15.43;;
55134;SDS011;41031;44.750;11.308;2023-03-24T02:21:26;20.13;;;15.27;;
55134;SDS011;41031;44.750;11.308;2023-03-24T02:48:36;22.93;;;16.23;;
55134;SDS011;41031;44.750;11.308;2023-03-24T02:51:22;21.57;;;15.20;;
55134;SDS011;41031;44.750;11.308;2023-03-24T02:56:39;21.00;;;16.17;;
55134;SDS011;41031;44.750;11.308;2023-03-24T02:59:43;20.87;;;16.53;;
55134;SDS011;41031;44.750;11.308;2023-03-24T03:02:42;20.93;;;15.33;;
55134;SDS011;41031;44.750;11.308;2023-03-24T03:05:16;19.87;;;15.73;;
55134;SDS011;41031;44.750;11.308;2023-03-24T03:08:08;21.17;;;15.60;;
55134;SDS011;41031;44.750;11.308;2023-03-24T03:10:41;21.20;;;16.63;;
55134;SDS011;41031;44.750;11.308;2023-03-24T03:13:16;22.80;;;15.03;;
55134;SDS011;41031;44.750;11.308;2023-03-24T03:15:52;19.07;;;14.77;;
55134;SDS011;41031;44.750;11.308;2023-03-24T03:18:24;19.73;;;14.40;;
55134;SDS011;41031;44.750;11.308;2023-03-24T03:21:17;17.50;;;14.17;;
55134;SDS011;41031;44.750;11.308;2023-03-24T03:23:53;20.30;;;15.17;;
55134;SDS011;41031;44.750;11.308;2023-03-24T03:26:28;19.00;;;14.47;;
55134;SDS011;41031;44.750;11.308;2023-03-24T03:28:59;21.23;;;14.57;;
55134;SDS011;41031;44.750;11.308;2023-03-24T03:31:42;21.40;;;15.60;;
55134;SDS011;41031;44.750;11.308;2023-03-24T03:34:17;23.23;;;16.47;;
55134;SDS011;41031;44.750;11.308;2023-03-24T03:37:07;17.80;;;13.47;;
55134;SDS011;41031;44.750;11.308;2023-03-24T03:39:51;22.87;;;14.50;;
55134;SDS011;41031;44.750;11.308;2023-03-24T03:42:27;20.70;;;14.70;;
55134;SDS011;41031;44.750;11.308;2023-03-24T03:44:54;19.53;;;14.23;;
55134;SDS011;41031;44.750;11.308;2023-03-24T03:47:22;22.70;;;15.40;;
55134;SDS011;41031;44.750;11.308;2023-03-24T03:49:49;19.70;;;14.93;;
55134;SDS011;41031;44.750;11.308;2023-03-24T03:52:16;18.53;;;13.73;;
55134;SDS011;41031;44.750;11.308;2023-03-24T03:54:46;20.67;;;14.60;;
55134;SDS011;41031;44.750;11.308;2023-03-24T03:57:13;22.03;;;13.93;;
55134;SDS011;41031;44.750;11.308;2023-03-24T04:00:02;23.67;;;14.27;;
55134;SDS011;41031;44.750;11.308;2023-03-24T04:28:23;17.30;;;12.13;;
55134;SDS011;41031;44.750;11.308;2023-03-24T04:30:59;19.33;;;12.07;;
55134;SDS011;41031;44.750;11.308;2023-03-24T04:33:57;15.27;;;11.87;;
55134;SDS011;41031;44.750;11.308;2023-03-24T04:39:25;20.03;;;12.80;;
55134;SDS011;41031;44.750;11.308;2023-03-24T04:42:00;17.57;;;12.50;;
55134;SDS011;41031;44.750;11.308;2023-03-24T04:44:31;13.30;;;11.60;;
55134;SDS011;41031;44.750;11.308;2023-03-24T04:47:20;18.40;;;12.03;;
55134;SDS011;41031;44.750;11.308;2023-03-24T04:50:05;16.10;;;12.60;;
55134;SDS011;41031;44.750;11.308;2023-03-24T04:52:38;17.27;;;13.00;;
55134;SDS011;41031;44.750;11.308;2023-03-24T04:58:03;15.93;;;11.57;;
55134;SDS011;41031;44.750;11.308;2023-03-24T05:00:30;18.17;;;13.13;;
55134;SDS011;41031;44.750;11.308;2023-03-24T05:02:57;16.43;;;13.07;;
55134;SDS011;41031;44.750;11.308;2023-03-24T05:05:26;18.73;;;12.70;;
55134;SDS011;41031;44.750;11.308;2023-03-24T05:07:54;15.83;;;12.33;;
55134;SDS011;41031;44.750;11.308;2023-03-24T05:10:22;17.80;;;13.33;;
55134;SDS011;41031;44.750;11.308;2023-03-24T05:12:53;17.27;;;12.53;;
55134;SDS011;41031;44.750;11.308;2023-03-24T05:15:44;16.67;;;12.03;;
55134;SDS011;41031;44.750;11.308;2023-03-24T05:18:26;14.93;;;11.13;;
55134;SDS011;41031;44.750;11.308;2023-03-24T05:20:55;14.40;;;11.20;;
55134;SDS011;41031;44.750;11.308;2023-03-24T05:23:23;14.90;;;12.87;;
55134;SDS011;41031;44.750;11.308;2023-03-24T05:25:51;16.23;;;11.93;;
55134;SDS011;41031;44.750;11.308;2023-03-24T05:28:21;13.33;;;10.37;;
55134;SDS011;41031;44.750;11.308;2023-03-24T05:30:50;19.80;;;11.33;;
55134;SDS011;41031;44.750;11.308;2023-03-24T05:33:40;19.63;;;11.87;;
55134;SDS011;41031;44.750;11.308;2023-03-24T05:36:11;15.63;;;11.97;;
55134;SDS011;41031;44.750;11.308;2023-03-24T05:38:40;18.30;;;12.37;;
55134;SDS011;41031;44.750;11.308;2023-03-24T05:41:07;18.33;;;12.43;;
55134;SDS011;41031;44.750;11.308;2023-03-24T05:43:38;20.93;;;12.57;;
55134;SDS011;41031;44.750;11.308;2023-03-24T05:46:09;15.40;;;11.77;;
55134;SDS011;41031;44.750;11.308;2023-03-24T05:48:36;18.17;;;12.17;;
55134;SDS011;41031;44.750;11.308;2023-03-24T05:51:14;13.53;;;11.90;;
55134;SDS011;41031;44.750;11.308;2023-03-24T05:53:43;15.13;;;10.97;;
55134;SDS011;41031;44.750;11.308;2023-03-24T05:56:13;14.47;;;10.93;;
55134;SDS011;41031;44.750;11.308;2023-03-24T05:58:59;16.63;;;11.60;;
55134;SDS011;41031;44.750;11.308;2023-03-24T06:01:44;11.70;;;10.47;;
55134;SDS011;41031;44.750;11.308;2023-03-24T06:04:26;13.20;;;10.87;;
55134;SDS011;41031;44.750;11.308;2023-03-24T06:07:03;14.97;;;10.13;;
55134;SDS011;41031;44.750;11.308;2023-03-24T06:09:33;15.27;;;11.13;;
55134;SDS011;41031;44.750;11.308;2023-03-24T06:12:07;14.00;;;11.83;;
55134;SDS011;41031;44.750;11.308;2023-03-24T06:14:38;14.10;;;11.40;;
55134;SDS011;41031;44.750;11.308;2023-03-24T06:17:10;11.57;;;9.83;;
55134;SDS011;41031;44.750;11.308;2023-03-24T06:19:44;14.93;;;11.63;;
55134;SDS011;41031;44.750;11.308;2023-03-24T06:22:35;16.17;;;11.20;;
55134;SDS011;41031;44.750;11.308;2023-03-24T06:25:06;16.30;;;11.30;;
55134;SDS011;41031;44.750;11.308;2023-03-24T06:27:35;16.70;;;11.43;;
55134;SDS011;41031;44.750;11.308;2023-03-24T06:30:03;14.10;;;10.80;;
55134;SDS011;41031;44.750;11.308;2023-03-24T06:32:31;17.83;;;11.73;;
55134;SDS011;41031;44.750;11.308;2023-03-24T06:34:58;18.10;;;11.60;;
55134;SDS011;41031;44.750;11.308;2023-03-24T06:37:43;14.10;;;10.30;;
55134;SDS011;41031;44.750;11.308;2023-03-24T06:40:13;14.23;;;10.87;;
55134;SDS011;41031;44.750;11.308;2023-03-24T06:42:49;15.20;;;11.33;;
55134;SDS011;41031;44.750;11.308;2023-03-24T06:45:16;15.23;;;11.87;;
55134;SDS011;41031;44.750;11.308;2023-03-24T06:47:45;18.07;;;11.10;;
55134;SDS011;41031;44.750;11.308;2023-03-24T06:50:12;15.33;;;10.07;;
55134;SDS011;41031;44.750;11.308;2023-03-24T06:52:39;15.83;;;10.83;;
55134;SDS011;41031;44.750;11.308;2023-03-24T06:55:09;18.90;;;10.57;;
55134;SDS011;41031;44.750;11.308;2023-03-24T06:57:37;22.90;;;10.83;;
55134;SDS011;41031;44.750;11.308;2023-03-24T07:00:39;20.77;;;11.63;;
55134;SDS011;41031;44.750;11.308;2023-03-24T07:03:21;19.97;;;11.23;;
55134;SDS011;41031;44.750;11.308;2023-03-24T07:06:09;14.23;;;11.07;;
55134;SDS011;41031;44.750;11.308;2023-03-24T07:08:36;21.17;;;12.33;;
55134;SDS011;41031;44.750;11.308;2023-03-24T07:11:05;23.73;;;12.73;;
55134;SDS011;41031;44.750;11.308;2023-03-24T07:13:36;20.40;;;13.27;;
55134;SDS011;41031;44.750;11.308;2023-03-24T07:16:03;23.77;;;15.83;;
55134;SDS011;41031;44.750;11.308;2023-03-24T07:18:33;21.60;;;15.30;;
55134;SDS011;41031;44.750;11.308;2023-03-24T07:21:04;21.23;;;15.43;;
55134;SDS011;41031;44.750;11.308;2023-03-24T07:23:32;19.60;;;14.83;;
55134;SDS011;41031;44.750;11.308;2023-03-24T07:26:08;20.03;;;14.87;;
55134;SDS011;41031;44.750;11.308;2023-03-24T07:28:55;16.10;;;13.87;;
55134;SDS011;41031;44.750;11.308;2023-03-24T07:31:49;20.03;;;14.37;;
55134;SDS011;41031;44.750;11.308;2023-03-24T07:34:16;15.20;;;12.83;;
55134;SDS011;41031;44.750;11.308;2023-03-24T07:36:43;18.10;;;12.77;;
55134;SDS011;41031;44.750;11.308;2023-03-24T07:39:14;15.77;;;12.60;;
55134;SDS011;41031;44.750;11.308;2023-03-24T07:41:42;17.03;;;13.80;;
55134;SDS011;41031;44.750;11.308;2023-03-24T07:44:22;16.47;;;12.93;;
55134;SDS011;41031;44.750;11.308;2023-03-24T07:46:51;21.07;;;13.33;;
55134;SDS011;41031;44.750;11.308;2023-03-24T07:49:19;15.77;;;13.80;;
55134;SDS011;41031;44.750;11.308;2023-03-24T07:51:59;15.80;;;13.37;;
55134;SDS011;41031;44.750;11.308;2023-03-24T07:54:37;16.97;;;12.53;;
55134;SDS011;41031;44.750;11.308;2023-03-24T07:57:04;15.43;;;11.30;;
55134;SDS011;41031;44.750;11.308;2023-03-24T07:59:36;13.40;;;10.77;;
55134;SDS011;41031;44.750;11.308;2023-03-24T08:02:17;14.77;;;10.13;;
55134;SDS011;41031;44.750;11.308;2023-03-24T08:05:04;12.17;;;10.80;;
55134;SDS011;41031;44.750;11.308;2023-03-24T08:07:50;14.67;;;10.90;;
55134;SDS011;41031;44.750;11.308;2023-03-24T08:10:22;15.30;;;11.57;;
55134;SDS011;41031;44.750;11.308;2023-03-24T08:12:51;13.03;;;10.33;;
55134;SDS011;41031;44.750;11.308;2023-03-24T08:15:18;13.20;;;10.93;;
55134;SDS011;41031;44.750;11.308;2023-03-24T08:17:47;15.77;;;11.07;;
55134;SDS011;41031;44.750;11.308;2023-03-24T08:20:15;12.83;;;10.90;;
55134;SDS011;41031;44.750;11.308;2023-03-24T08:22:45;12.87;;;10.10;;
55134;SDS011;41031;44.750;11.308;2023-03-24T08:25:16;14.97;;;10.93;;
55134;SDS011;41031;44.750;11.308;2023-03-24T08:27:44;13.73;;;11.20;;
55134;SDS011;41031;44.750;11.308;2023-03-24T08:30:13;13.83;;;9.93;;
55134;SDS011;41031;44.750;11.308;2023-03-24T08:32:47;11.20;;;8.53;;
55134;SDS011;41031;44.750;11.308;2023-03-24T08:35:17;10.80;;;9.67;;
55134;SDS011;41031;44.750;11.308;2023-03-24T08:37:46;10.77;;;9.67;;
55134;SDS011;41031;44.750;11.308;2023-03-24T08:40:17;11.47;;;9.63;;
55134;SDS011;41031;44.750;11.308;2023-03-24T08:42:46;10.33;;;9.23;;
55134;SDS011;41031;44.750;11.308;2023-03-24T08:45:15;14.70;;;9.47;;
55134;SDS011;41031;44.750;11.308;2023-03-24T08:47:47;10.57;;;9.00;;
55134;SDS011;41031;44.750;11.308;2023-03-24T08:50:16;11.50;;;8.97;;
55134;SDS011;41031;44.750;11.308;2023-03-24T08:52:45;11.10;;;9.20;;
55134;SDS011;41031;44.750;11.308;2023-03-24T08:55:15;13.13;;;9.63;;
55134;SDS011;41031;44.750;11.308;2023-03-24T08:57:43;13.30;;;9.60;;
55134;SDS011;41031;44.750;11.308;2023-03-24T09:00:11;11.63;;;8.47;;
55134;SDS011;41031;44.750;11.308;2023-03-24T09:02:42;13.13;;;10.00;;
55134;SDS011;41031;44.750;11.308;2023-03-24T09:05:11;11.87;;;9.70;;
55134;SDS011;41031;44.750;11.308;2023-03-24T09:07:41;11.53;;;9.97;;
55134;SDS011;41031;44.750;11.308;2023-03-24T09:10:08;21.93;;;13.27;;
55134;SDS011;41031;44.750;11.308;2023-03-24T09:12:37;13.90;;;9.90;;
55134;SDS011;41031;44.750;11.308;2023-03-24T09:15:05;11.30;;;9.67;;
55134;SDS011;41031;44.750;11.308;2023-03-24T09:17:34;14.10;;;10.27;;
55134;SDS011;41031;44.750;11.308;2023-03-24T09:20:02;11.37;;;10.13;;
55134;SDS011;41031;44.750;11.308;2023-03-24T09:22:44;11.37;;;9.33;;
55134;SDS011;41031;44.750;11.308;2023-03-24T09:25:18;14.63;;;10.83;;
55134;SDS011;41031;44.750;11.308;2023-03-24T09:27:46;13.47;;;10.73;;
55134;SDS011;41031;44.750;11.308;2023-03-24T09:30:14;11.70;;;10.50;;
55134;SDS011;41031;44.750;11.308;2023-03-24T09:32:43;15.00;;;11.07;;
55134;SDS011;41031;44.750;11.308;2023-03-24T09:35:10;29.00;;;11.17;;
55134;SDS011;41031;44.750;11.308;2023-03-24T09:37:38;14.50;;;11.67;;
55134;SDS011;41031;44.750;11.308;2023-03-24T09:40:05;15.90;;;11.07;;
55134;SDS011;41031;44.750;11.308;2023-03-24T09:42:34;14.13;;;11.30;;
55134;SDS011;41031;44.750;11.308;2023-03-24T09:45:06;13.30;;;11.13;;
55134;SDS011;41031;44.750;11.308;2023-03-24T09:50:56;15.50;;;11.93;;
55134;SDS011;41031;44.750;11.308;2023-03-24T09:53:38;14.83;;;11.80;;
55134;SDS011;41031;44.750;11.308;2023-03-24T09:56:16;15.10;;;11.20;;
55134;SDS011;41031;44.750;11.308;2023-03-24T09:58:45;13.17;;;11.03;;
55134;SDS011;41031;44.750;11.308;2023-03-24T10:01:18;11.90;;;10.07;;
55134;SDS011;41031;44.750;11.308;2023-03-24T10:03:45;11.57;;;9.73;;
55134;SDS011;41031;44.750;11.308;2023-03-24T10:06:15;17.43;;;10.47;;
55134;SDS011;41031;44.750;11.308;2023-03-24T10:11:45;14.43;;;9.67;;
55134;SDS011;41031;44.750;11.308;2023-03-24T10:19:39;11.83;;;9.60;;
55134;SDS011;41031;44.750;11.308;2023-03-24T10:22:38;12.13;;;8.37;;
55134;SDS011;41031;44.750;11.308;2023-03-24T10:30:38;10.50;;;7.70;;
55134;SDS011;41031;44.750;11.308;2023-03-24T10:33:10;9.13;;;8.23;;
55134;SDS011;41031;44.750;11.308;2023-03-24T10:35:47;8.90;;;8.00;;
55134;SDS011;41031;44.750;11.308;2023-03-24T10:38:27;9.20;;;7.43;;
55134;SDS011;41031;44.750;11.308;2023-03-24T10:40:54;7.20;;;6.23;;
55134;SDS011;41031;44.750;11.308;2023-03-24T10:43:22;10.10;;;7.83;;
55134;SDS011;41031;44.750;11.308;2023-03-24T10:45:52;10.47;;;7.67;;
55134;SDS011;41031;44.750;11.308;2023-03-24T10:51:15;8.80;;;7.00;;
55134;SDS011;41031;44.750;11.308;2023-03-24T10:53:45;8.77;;;7.30;;
55134;SDS011;41031;44.750;11.308;2023-03-24T10:56:18;9.07;;;6.37;;
55134;SDS011;41031;44.750;11.308;2023-03-24T10:59:26;11.60;;;8.37;;
55134;SDS011;41031;44.750;11.308;2023-03-24T11:01:54;8.07;;;6.00;;
55134;SDS011;41031;44.750;11.308;2023-03-24T11:04:24;8.17;;;6.17;;
55134;SDS011;41031;44.750;11.308;2023-03-24T11:07:03;6.47;;;5.40;;
55134;SDS011;41031;44.750;11.308;2023-03-24T11:09:43;8.17;;;4.40;;
55134;SDS011;41031;44.750;11.308;2023-03-24T11:12:26;6.63;;;4.40;;
55134;SDS011;41031;44.750;11.308;2023-03-24T11:17:51;7.37;;;5.90;;
55134;SDS011;41031;44.750;11.308;2023-03-24T11:23:05;10.07;;;6.57;;
55134;SDS011;41031;44.750;11.308;2023-03-24T11:28:36;7.63;;;6.00;;
55134;SDS011;41031;44.750;11.308;2023-03-24T11:31:06;9.40;;;7.40;;
55134;SDS011;41031;44.750;11.308;2023-03-24T11:33:40;9.23;;;6.37;;
55134;SDS011;41031;44.750;11.308;2023-03-24T11:39:01;8.00;;;6.20;;
55134;SDS011;41031;44.750;11.308;2023-03-24T11:41:37;11.30;;;7.00;;
55134;SDS011;41031;44.750;11.308;2023-03-24T11:44:16;10.40;;;7.00;;
55134;SDS011;41031;44.750;11.308;2023-03-24T11:46:58;7.93;;;6.77;;
55134;SDS011;41031;44.750;11.308;2023-03-24T11:49:30;10.47;;;8.00;;
55134;SDS011;41031;44.750;11.308;2023-03-24T11:52:00;9.43;;;7.60;;
55134;SDS011;41031;44.750;11.308;2023-03-24T11:54:30;10.53;;;8.80;;
55134;SDS011;41031;44.750;11.308;2023-03-24T11:57:08;14.03;;;8.57;;
55134;SDS011;41031;44.750;11.308;2023-03-24T12:10:37;10.13;;;9.03;;
55134;SDS011;41031;44.750;11.308;2023-03-24T12:26:47;13.80;;;8.50;;
55134;SDS011;41031;44.750;11.308;2023-03-24T12:29:25;9.67;;;8.37;;
55134;SDS011;41031;44.750;11.308;2023-03-24T12:32:23;9.10;;;7.47;;
55134;SDS011;41031;44.750;11.308;2023-03-24T12:35:09;9.27;;;6.93;;
55134;SDS011;41031;44.750;11.308;2023-03-24T12:38:00;10.50;;;9.40;;
55134;SDS011;41031;44.750;11.308;2023-03-24T12:46:16;9.20;;;8.17;;
55134;SDS011;41031;44.750;11.308;2023-03-24T12:52:33;8.37;;;6.77;;
55134;SDS011;41031;44.750;11.308;2023-03-24T12:55:06;8.07;;;7.07;;
55134;SDS011;41031;44.750;11.308;2023-03-24T12:57:55;8.80;;;5.90;;
55134;SDS011;41031;44.750;11.308;2023-03-24T13:00:29;7.90;;;6.27;;
55134;SDS011;41031;44.750;11.308;2023-03-24T13:03:05;8.80;;;6.37;;
55134;SDS011;41031;44.750;11.308;2023-03-24T13:05:57;7.63;;;5.43;;
55134;SDS011;41031;44.750;11.308;2023-03-24T13:08:42;8.17;;;6.27;;
55134;SDS011;41031;44.750;11.308;2023-03-24T13:11:14;8.40;;;7.47;;
55134;SDS011;41031;44.750;11.308;2023-03-24T13:13:59;9.67;;;6.40;;
55134;SDS011;41031;44.750;11.308;2023-03-24T13:16:30;10.57;;;6.83;;
55134;SDS011;41031;44.750;11.308;2023-03-24T13:19:01;7.43;;;6.30;;
55134;SDS011;41031;44.750;11.308;2023-03-24T13:21:29;7.87;;;6.77;;
55134;SDS011;41031;44.750;11.308;2023-03-24T13:26:47;8.03;;;6.37;;
55134;SDS011;41031;44.750;11.308;2023-03-24T13:37:55;7.50;;;6.03;;
55134;SDS011;41031;44.750;11.308;2023-03-24T13:40:31;6.60;;;5.97;;
55134;SDS011;41031;44.750;11.308;2023-03-24T13:43:09;7.33;;;6.00;;
55134;SDS011;41031;44.750;11.308;2023-03-24T13:51:35;7.40;;;5.67;;
55134;SDS011;41031;44.750;11.308;2023-03-24T13:56:32;6.17;;;5.30;;
55134;SDS011;41031;44.750;11.308;2023-03-24T14:07:28;8.87;;;6.40;;
55134;SDS011;41031;44.750;11.308;2023-03-24T14:10:00;6.40;;;5.33;;
55134;SDS011;41031;44.750;11.308;2023-03-24T14:13:34;7.07;;;5.80;;
55134;SDS011;41031;44.750;11.308;2023-03-24T14:15:50;6.60;;;5.90;;
55134;SDS011;41031;44.750;11.308;2023-03-24T14:23:22;6.37;;;5.10;;
55134;SDS011;41031;44.750;11.308;2023-03-24T14:26:27;6.17;;;4.73;;
55134;SDS011;41031;44.750;11.308;2023-03-24T14:28:59;8.93;;;5.40;;
55134;SDS011;41031;44.750;11.308;2023-03-24T14:31:30;6.73;;;4.90;;
55134;SDS011;41031;44.750;11.308;2023-03-24T14:34:16;5.60;;;4.23;;
55134;SDS011;41031;44.750;11.308;2023-03-24T14:36:57;8.13;;;4.73;;
55134;SDS011;41031;44.750;11.308;2023-03-24T14:39:30;6.57;;;4.67;;
55134;SDS011;41031;44.750;11.308;2023-03-24T14:41:58;4.97;;;3.93;;
55134;SDS011;41031;44.750;11.308;2023-03-24T14:47:15;7.33;;;4.50;;
55134;SDS011;41031;44.750;11.308;2023-03-24T14:49:45;5.73;;;5.10;;
55134;SDS011;41031;44.750;11.308;2023-03-24T14:54:57;6.77;;;5.03;;
55134;SDS011;41031;44.750;11.308;2023-03-24T14:57:28;5.33;;;4.33;;
55134;SDS011;41031;44.750;11.308;2023-03-24T15:00:00;6.83;;;4.10;;
55134;SDS011;41031;44.750;11.308;2023-03-24T15:02:44;5.50;;;3.80;;
55134;SDS011;41031;44.750;11.308;2023-03-24T15:10:48;5.90;;;3.33;;
55134;SDS011;41031;44.750;11.308;2023-03-24T15:18:47;4.87;;;3.70;;
55134;SDS011;41031;44.750;11.308;2023-03-24T15:21:31;4.80;;;3.17;;
55134;SDS011;41031;44.750;11.308;2023-03-24T15:24:22;5.90;;;3.23;;
55134;SDS011;41031;44.750;11.308;2023-03-24T15:26:53;5.07;;;3.20;;
55134;SDS011;41031;44.750;11.308;2023-03-24T15:29:34;4.47;;;3.03;;
55134;SDS011;41031;44.750;11.308;2023-03-24T15:32:03;5.53;;;2.90;;
55134;SDS011;41031;44.750;11.308;2023-03-24T15:34:41;4.37;;;2.90;;
55134;SDS011;41031;44.750;11.308;2023-03-24T15:37:48;3.23;;;2.80;;
55134;SDS011;41031;44.750;11.308;2023-03-24T15:42:53;10.90;;;3.30;;
55134;SDS011;41031;44.750;11.308;2023-03-24T15:45:24;5.93;;;3.03;;
55134;SDS011;41031;44.750;11.308;2023-03-24T15:47:57;6.63;;;3.07;;
55134;SDS011;41031;44.750;11.308;2023-03-24T16:01:33;2.90;;;2.70;;
55134;SDS011;41031;44.750;11.308;2023-03-24T16:04:04;3.60;;;3.03;;
55134;SDS011;41031;44.750;11.308;2023-03-24T16:06:41;4.93;;;3.20;;
55134;SDS011;41031;44.750;11.308;2023-03-24T16:09:15;3.93;;;3.40;;
55134;SDS011;41031;44.750;11.308;2023-03-24T16:11:47;5.50;;;3.37;;
55134;SDS011;41031;44.750;11.308;2023-03-24T16:14:27;6.53;;;3.90;;
55134;SDS011;41031;44.750;11.308;2023-03-24T16:16:57;4.00;;;3.57;;
55134;SDS011;41031;44.750;11.308;2023-03-24T16:19:25;4.13;;;3.50;;
55134;SDS011;41031;44.750;11.308;2023-03-24T16:21:54;4.90;;;3.83;;
55134;SDS011;41031;44.750;11.308;2023-03-24T16:24:21;5.27;;;4.50;;
55134;SDS011;41031;44.750;11.308;2023-03-24T16:26:48;8.07;;;4.13;;
55134;SDS011;41031;44.750;11.308;2023-03-24T16:29:16;5.13;;;4.27;;
55134;SDS011;41031;44.750;11.308;2023-03-24T16:31:46;7.17;;;3.57;;
55134;SDS011;41031;44.750;11.308;2023-03-24T16:34:18;5.03;;;3.63;;
55134;SDS011;41031;44.750;11.308;2023-03-24T16:36:47;7.23;;;3.97;;
55134;SDS011;41031;44.750;11.308;2023-03-24T16:39:17;5.47;;;4.70;;
55134;SDS011;41031;44.750;11.308;2023-03-24T16:41:46;3.97;;;3.67;;
55134;SDS011;41031;44.750;11.308;2023-03-24T16:44:13;6.73;;;4.00;;
55134;SDS011;41031;44.750;11.308;2023-03-24T16:46:43;6.17;;;4.03;;
55134;SDS011;41031;44.750;11.308;2023-03-24T16:49:15;5.73;;;3.77;;
55134;SDS011;41031;44.750;11.308;2023-03-24T16:51:44;4.43;;;4.03;;
55134;SDS011;41031;44.750;11.308;2023-03-24T16:54:12;6.27;;;3.90;;
55134;SDS011;41031;44.750;11.308;2023-03-24T16:56:39;5.47;;;3.80;;
55134;SDS011;41031;44.750;11.308;2023-03-24T16:59:06;5.83;;;4.23;;
55134;SDS011;41031;44.750;11.308;2023-03-24T17:01:38;4.90;;;4.50;;
55134;SDS011;41031;44.750;11.308;2023-03-24T17:04:07;9.03;;;3.93;;
55134;SDS011;41031;44.750;11.308;2023-03-24T17:06:45;4.93;;;4.10;;
55134;SDS011;41031;44.750;11.308;2023-03-24T17:09:19;5.73;;;3.90;;
55134;SDS011;41031;44.750;11.308;2023-03-24T17:11:48;5.77;;;3.97;;
55134;SDS011;41031;44.750;11.308;2023-03-24T17:14:20;4.87;;;3.80;;
55134;SDS011;41031;44.750;11.308;2023-03-24T17:16:48;4.63;;;3.80;;
55134;SDS011;41031;44.750;11.308;2023-03-24T17:19:19;4.33;;;3.93;;
55134;SDS011;41031;44.750;11.308;2023-03-24T17:21:48;5.07;;;4.23;;
55134;SDS011;41031;44.750;11.308;2023-03-24T17:24:23;4.97;;;4.20;;
55134;SDS011;41031;44.750;11.308;2023-03-24T17:26:50;6.67;;;4.70;;
55134;SDS011;41031;44.750;11.308;2023-03-24T17:29:18;6.97;;;4.50;;
55134;SDS011;41031;44.750;11.308;2023-03-24T17:31:45;5.67;;;5.17;;
55134;SDS011;41031;44.750;11.308;2023-03-24T17:34:12;8.07;;;4.80;;
55134;SDS011;41031;44.750;11.308;2023-03-24T17:36:43;5.63;;;4.53;;
55134;SDS011;41031;44.750;11.308;2023-03-24T17:39:12;5.87;;;4.47;;
55134;SDS011;41031;44.750;11.308;2023-03-24T17:41:42;8.07;;;6.93;;
55134;SDS011;41031;44.750;11.308;2023-03-24T17:44:09;11.80;;;8.17;;
55134;SDS011;41031;44.750;11.308;2023-03-24T17:46:36;9.97;;;7.33;;
55134;SDS011;41031;44.750;11.308;2023-03-24T17:49:03;10.33;;;8.43;;
55134;SDS011;41031;44.750;11.308;2023-03-24T17:51:30;12.67;;;6.33;;
55134;SDS011;41031;44.750;11.308;2023-03-24T17:53:58;13.17;;;6.73;;
55134;SDS011;41031;44.750;11.308;2023-03-24T17:56:25;10.00;;;6.40;;
55134;SDS011;41031;44.750;11.308;2023-03-24T17:58:52;7.10;;;6.47;;
55134;SDS011;41031;44.750;11.308;2023-03-24T18:01:20;9.53;;;6.33;;
55134;SDS011;41031;44.750;11.308;2023-03-24T18:03:49;7.73;;;6.50;;
55134;SDS011;41031;44.750;11.308;2023-03-24T18:06:16;7.27;;;6.07;;
55134;SDS011;41031;44.750;11.308;2023-03-24T18:08:43;8.90;;;5.70;;